sensor_id;sensor_type;location;lat;lon;timestamp;P1;durP1;ratioP1;P2;durP2;ratioP2
6388;SDS011;3227;42.654;23.360;2022-11-15T00:00:06;57.10;;;33.10;;
6388;SDS011;3227;42.654;23.360;2022-11-15T00:02:33;58.53;;;32.33;;
6388;SDS011;3227;42.654;23.360;2022-11-15T00:05:00;57.40;;;33.53;;
6388;SDS011;3227;42.654;23.360;2022-11-15T00:07:32;59.50;;;34.13;;
6388;SDS011;3227;42.654;23.360;2022-11-15T00:09:59;61.87;;;34.43;;
6388;SDS011;3227;42.654;23.360;2022-11-15T00:12:27;59.27;;;34.87;;
6388;SDS011;3227;42.654;23.360;2022-11-15T00:14:54;57.53;;;34.00;;
6388;SDS011;3227;42.654;23.360;2022-11-15T00:17:21;65.87;;;35.93;;
6388;SDS011;3227;42.654;23.360;2022-11-15T00:19:48;62.23;;;37.00;;
6388;SDS011;3227;42.654;23.360;2022-11-15T00:22:15;71.93;;;36.20;;
6388;SDS011;3227;42.654;23.360;2022-11-15T00:24:42;61.50;;;35.27;;
6388;SDS011;3227;42.654;23.360;2022-11-15T00:27:09;68.43;;;36.70;;
6388;SDS011;3227;42.654;23.360;2022-11-15T00:29:37;69.00;;;37.67;;
6388;SDS011;3227;42.654;23.360;2022-11-15T00:32:08;62.73;;;35.13;;
6388;SDS011;3227;42.654;23.360;2022-11-15T00:34:35;69.93;;;36.43;;
6388;SDS011;3227;42.654;23.360;2022-11-15T00:37:02;61.47;;;36.10;;
6388;SDS011;3227;42.654;23.360;2022-11-15T00:39:28;63.97;;;35.87;;
6388;SDS011;3227;42.654;23.360;2022-11-15T00:41:55;62.77;;;35.87;;
6388;SDS011;3227;42.654;23.360;2022-11-15T00:44:22;65.73;;;36.80;;
6388;SDS011;3227;42.654;23.360;2022-11-15T00:46:50;58.13;;;33.80;;
6388;SDS011;3227;42.654;23.360;2022-11-15T00:49:17;54.53;;;30.83;;
6388;SDS011;3227;42.654;23.360;2022-11-15T00:51:44;59.53;;;32.77;;
6388;SDS011;3227;42.654;23.360;2022-11-15T00:54:10;60.07;;;33.77;;
6388;SDS011;3227;42.654;23.360;2022-11-15T00:56:37;53.27;;;29.83;;
6388;SDS011;3227;42.654;23.360;2022-11-15T00:59:04;52.47;;;30.83;;
6388;SDS011;3227;42.654;23.360;2022-11-15T01:01:31;61.50;;;32.47;;
6388;SDS011;3227;42.654;23.360;2022-11-15T01:03:59;58.50;;;30.27;;
6388;SDS011;3227;42.654;23.360;2022-11-15T01:06:26;50.30;;;30.73;;
6388;SDS011;3227;42.654;23.360;2022-11-15T01:08:52;60.93;;;33.07;;
6388;SDS011;3227;42.654;23.360;2022-11-15T01:11:19;56.20;;;31.77;;
6388;SDS011;3227;42.654;23.360;2022-11-15T01:13:46;51.70;;;31.53;;
6388;SDS011;3227;42.654;23.360;2022-11-15T01:16:14;54.27;;;31.67;;
6388;SDS011;3227;42.654;23.360;2022-11-15T01:18:43;59.67;;;32.13;;
6388;SDS011;3227;42.654;23.360;2022-11-15T01:21:13;50.47;;;31.00;;
6388;SDS011;3227;42.654;23.360;2022-11-15T01:23:41;60.20;;;33.43;;
6388;SDS011;3227;42.654;23.360;2022-11-15T01:26:09;55.57;;;31.73;;
6388;SDS011;3227;42.654;23.360;2022-11-15T01:28:38;63.13;;;32.73;;
6388;SDS011;3227;42.654;23.360;2022-11-15T01:31:06;57.10;;;32.33;;
6388;SDS011;3227;42.654;23.360;2022-11-15T01:33:37;53.47;;;31.73;;
6388;SDS011;3227;42.654;23.360;2022-11-15T01:36:04;55.57;;;32.00;;
6388;SDS011;3227;42.654;23.360;2022-11-15T01:38:33;57.87;;;32.47;;
6388;SDS011;3227;42.654;23.360;2022-11-15T01:41:00;59.10;;;30.67;;
6388;SDS011;3227;42.654;23.360;2022-11-15T01:43:28;51.13;;;31.67;;
6388;SDS011;3227;42.654;23.360;2022-11-15T01:45:58;57.37;;;28.47;;
6388;SDS011;3227;42.654;23.360;2022-11-15T01:48:29;55.73;;;31.03;;
6388;SDS011;3227;42.654;23.360;2022-11-15T01:50:59;53.00;;;29.07;;
6388;SDS011;3227;42.654;23.360;2022-11-15T01:53:28;55.70;;;31.60;;
6388;SDS011;3227;42.654;23.360;2022-11-15T01:55:57;52.70;;;30.77;;
6388;SDS011;3227;42.654;23.360;2022-11-15T01:58:27;53.87;;;31.63;;
6388;SDS011;3227;42.654;23.360;2022-11-15T02:00:54;61.60;;;31.67;;
6388;SDS011;3227;42.654;23.360;2022-11-15T02:03:21;56.90;;;31.53;;
6388;SDS011;3227;42.654;23.360;2022-11-15T02:05:52;57.37;;;30.67;;
6388;SDS011;3227;42.654;23.360;2022-11-15T02:22:09;49.87;;;30.17;;
6388;SDS011;3227;42.654;23.360;2022-11-15T02:25:01;53.30;;;29.87;;
6388;SDS011;3227;42.654;23.360;2022-11-15T02:30:45;49.30;;;27.87;;
6388;SDS011;3227;42.654;23.360;2022-11-15T02:33:20;46.97;;;28.03;;
6388;SDS011;3227;42.654;23.360;2022-11-15T02:35:57;45.60;;;28.07;;
6388;SDS011;3227;42.654;23.360;2022-11-15T02:38:28;47.67;;;27.77;;
6388;SDS011;3227;42.654;23.360;2022-11-15T02:41:01;53.67;;;28.20;;
6388;SDS011;3227;42.654;23.360;2022-11-15T02:43:33;50.67;;;29.20;;
6388;SDS011;3227;42.654;23.360;2022-11-15T02:46:23;53.17;;;29.87;;
6388;SDS011;3227;42.654;23.360;2022-11-15T02:49:08;56.07;;;29.07;;
6388;SDS011;3227;42.654;23.360;2022-11-15T02:51:37;55.10;;;30.43;;
6388;SDS011;3227;42.654;23.360;2022-11-15T02:54:05;57.73;;;31.33;;
6388;SDS011;3227;42.654;23.360;2022-11-15T02:56:33;53.83;;;29.67;;
6388;SDS011;3227;42.654;23.360;2022-11-15T02:59:08;62.57;;;31.03;;
6388;SDS011;3227;42.654;23.360;2022-11-15T03:01:53;54.53;;;31.47;;
6388;SDS011;3227;42.654;23.360;2022-11-15T03:04:29;51.60;;;30.83;;
6388;SDS011;3227;42.654;23.360;2022-11-15T03:07:05;52.33;;;30.20;;
6388;SDS011;3227;42.654;23.360;2022-11-15T03:09:39;58.23;;;32.90;;
6388;SDS011;3227;42.654;23.360;2022-11-15T03:12:10;55.97;;;30.57;;
6388;SDS011;3227;42.654;23.360;2022-11-15T03:14:42;54.77;;;28.47;;
6388;SDS011;3227;42.654;23.360;2022-11-15T03:17:22;57.40;;;29.63;;
6388;SDS011;3227;42.654;23.360;2022-11-15T03:19:53;49.73;;;29.33;;
6388;SDS011;3227;42.654;23.360;2022-11-15T03:22:23;58.27;;;31.63;;
6388;SDS011;3227;42.654;23.360;2022-11-15T03:24:53;62.03;;;31.23;;
6388;SDS011;3227;42.654;23.360;2022-11-15T03:27:23;52.50;;;30.77;;
6388;SDS011;3227;42.654;23.360;2022-11-15T03:29:55;55.47;;;30.20;;
6388;SDS011;3227;42.654;23.360;2022-11-15T03:32:28;50.17;;;29.00;;
6388;SDS011;3227;42.654;23.360;2022-11-15T03:34:57;56.60;;;30.63;;
6388;SDS011;3227;42.654;23.360;2022-11-15T03:37:29;54.63;;;30.60;;
6388;SDS011;3227;42.654;23.360;2022-11-15T03:40:01;47.13;;;28.10;;
6388;SDS011;3227;42.654;23.360;2022-11-15T03:42:30;54.00;;;30.47;;
6388;SDS011;3227;42.654;23.360;2022-11-15T03:45:01;48.23;;;28.20;;
6388;SDS011;3227;42.654;23.360;2022-11-15T03:47:34;51.97;;;28.57;;
6388;SDS011;3227;42.654;23.360;2022-11-15T03:50:07;49.53;;;28.53;;
6388;SDS011;3227;42.654;23.360;2022-11-15T03:52:37;50.70;;;28.57;;
6388;SDS011;3227;42.654;23.360;2022-11-15T03:55:06;52.20;;;29.00;;
6388;SDS011;3227;42.654;23.360;2022-11-15T03:57:36;53.67;;;30.13;;
6388;SDS011;3227;42.654;23.360;2022-11-15T04:00:04;52.73;;;29.93;;
6388;SDS011;3227;42.654;23.360;2022-11-15T04:02:35;60.63;;;29.73;;
6388;SDS011;3227;42.654;23.360;2022-11-15T04:05:02;61.03;;;32.97;;
6388;SDS011;3227;42.654;23.360;2022-11-15T04:07:29;75.97;;;36.70;;
6388;SDS011;3227;42.654;23.360;2022-11-15T04:09:56;74.60;;;38.13;;
6388;SDS011;3227;42.654;23.360;2022-11-15T04:12:28;76.47;;;38.67;;
6388;SDS011;3227;42.654;23.360;2022-11-15T04:14:58;77.87;;;39.00;;
6388;SDS011;3227;42.654;23.360;2022-11-15T04:17:38;77.70;;;38.70;;
6388;SDS011;3227;42.654;23.360;2022-11-15T04:20:08;81.60;;;37.57;;
6388;SDS011;3227;42.654;23.360;2022-11-15T04:22:57;72.93;;;38.20;;
6388;SDS011;3227;42.654;23.360;2022-11-15T04:25:43;71.17;;;37.33;;
6388;SDS011;3227;42.654;23.360;2022-11-15T04:28:11;84.97;;;42.37;;
6388;SDS011;3227;42.654;23.360;2022-11-15T04:30:38;64.83;;;33.70;;
6388;SDS011;3227;42.654;23.360;2022-11-15T04:33:06;51.33;;;30.00;;
6388;SDS011;3227;42.654;23.360;2022-11-15T04:35:33;48.57;;;29.13;;
6388;SDS011;3227;42.654;23.360;2022-11-15T04:38:01;44.03;;;26.30;;
6388;SDS011;3227;42.654;23.360;2022-11-15T04:40:29;42.47;;;23.47;;
6388;SDS011;3227;42.654;23.360;2022-11-15T04:42:56;40.30;;;24.20;;
6388;SDS011;3227;42.654;23.360;2022-11-15T04:45:23;45.87;;;25.50;;
6388;SDS011;3227;42.654;23.360;2022-11-15T04:47:50;43.83;;;25.53;;
6388;SDS011;3227;42.654;23.360;2022-11-15T04:50:18;40.70;;;24.93;;
6388;SDS011;3227;42.654;23.360;2022-11-15T04:52:50;46.13;;;26.57;;
6388;SDS011;3227;42.654;23.360;2022-11-15T04:55:17;40.23;;;24.73;;
6388;SDS011;3227;42.654;23.360;2022-11-15T04:57:45;43.73;;;25.43;;
6388;SDS011;3227;42.654;23.360;2022-11-15T05:00:13;43.30;;;24.90;;
6388;SDS011;3227;42.654;23.360;2022-11-15T05:02:42;39.23;;;24.77;;
6388;SDS011;3227;42.654;23.360;2022-11-15T05:05:27;41.97;;;24.33;;
6388;SDS011;3227;42.654;23.360;2022-11-15T05:07:54;48.93;;;25.77;;
6388;SDS011;3227;42.654;23.360;2022-11-15T05:10:21;46.83;;;25.43;;
6388;SDS011;3227;42.654;23.360;2022-11-15T05:12:48;42.23;;;25.07;;
6388;SDS011;3227;42.654;23.360;2022-11-15T05:15:15;48.23;;;25.80;;
6388;SDS011;3227;42.654;23.360;2022-11-15T05:17:42;45.63;;;24.90;;
6388;SDS011;3227;42.654;23.360;2022-11-15T05:20:10;44.27;;;25.67;;
6388;SDS011;3227;42.654;23.360;2022-11-15T05:22:39;54.17;;;26.43;;
6388;SDS011;3227;42.654;23.360;2022-11-15T05:25:06;49.43;;;26.23;;
6388;SDS011;3227;42.654;23.360;2022-11-15T05:27:34;49.00;;;25.57;;
6388;SDS011;3227;42.654;23.360;2022-11-15T05:30:00;42.23;;;24.53;;
6388;SDS011;3227;42.654;23.360;2022-11-15T05:32:27;43.77;;;24.93;;
6388;SDS011;3227;42.654;23.360;2022-11-15T05:34:55;46.30;;;26.47;;
6388;SDS011;3227;42.654;23.360;2022-11-15T05:37:22;41.83;;;24.23;;
6388;SDS011;3227;42.654;23.360;2022-11-15T05:39:50;47.80;;;25.07;;
6388;SDS011;3227;42.654;23.360;2022-11-15T05:42:17;45.53;;;24.73;;
6388;SDS011;3227;42.654;23.360;2022-11-15T05:44:46;42.53;;;22.87;;
6388;SDS011;3227;42.654;23.360;2022-11-15T05:47:15;38.63;;;20.33;;
6388;SDS011;3227;42.654;23.360;2022-11-15T05:49:44;50.43;;;26.40;;
6388;SDS011;3227;42.654;23.360;2022-11-15T05:52:14;46.60;;;25.80;;
6388;SDS011;3227;42.654;23.360;2022-11-15T05:54:44;36.90;;;21.37;;
6388;SDS011;3227;42.654;23.360;2022-11-15T05:57:12;44.27;;;21.27;;
6388;SDS011;3227;42.654;23.360;2022-11-15T05:59:39;39.83;;;21.83;;
6388;SDS011;3227;42.654;23.360;2022-11-15T06:02:08;48.70;;;25.63;;
6388;SDS011;3227;42.654;23.360;2022-11-15T06:04:35;42.90;;;21.97;;
6388;SDS011;3227;42.654;23.360;2022-11-15T06:07:02;45.53;;;23.53;;
6388;SDS011;3227;42.654;23.360;2022-11-15T06:09:29;43.77;;;23.03;;
6388;SDS011;3227;42.654;23.360;2022-11-15T06:11:56;39.40;;;23.33;;
6388;SDS011;3227;42.654;23.360;2022-11-15T06:14:25;48.93;;;24.30;;
6388;SDS011;3227;42.654;23.360;2022-11-15T06:16:52;45.23;;;22.70;;
6388;SDS011;3227;42.654;23.360;2022-11-15T06:19:21;37.67;;;20.57;;
6388;SDS011;3227;42.654;23.360;2022-11-15T06:21:58;36.37;;;19.97;;
6388;SDS011;3227;42.654;23.360;2022-11-15T06:24:24;37.00;;;20.30;;
6388;SDS011;3227;42.654;23.360;2022-11-15T06:26:51;41.47;;;21.27;;
6388;SDS011;3227;42.654;23.360;2022-11-15T06:29:18;37.00;;;21.07;;
6388;SDS011;3227;42.654;23.360;2022-11-15T06:31:47;41.73;;;22.07;;
6388;SDS011;3227;42.654;23.360;2022-11-15T06:34:13;36.27;;;21.10;;
6388;SDS011;3227;42.654;23.360;2022-11-15T06:36:40;45.13;;;22.27;;
6388;SDS011;3227;42.654;23.360;2022-11-15T06:39:07;43.07;;;22.90;;
6388;SDS011;3227;42.654;23.360;2022-11-15T06:41:34;45.03;;;22.57;;
6388;SDS011;3227;42.654;23.360;2022-11-15T06:44:01;47.00;;;23.10;;
6388;SDS011;3227;42.654;23.360;2022-11-15T06:46:28;49.10;;;24.57;;
6388;SDS011;3227;42.654;23.360;2022-11-15T06:48:56;40.97;;;21.67;;
6388;SDS011;3227;42.654;23.360;2022-11-15T06:51:23;42.93;;;22.20;;
6388;SDS011;3227;42.654;23.360;2022-11-15T06:53:50;42.83;;;23.73;;
6388;SDS011;3227;42.654;23.360;2022-11-15T06:56:16;47.17;;;24.00;;
6388;SDS011;3227;42.654;23.360;2022-11-15T06:58:43;45.13;;;24.53;;
6388;SDS011;3227;42.654;23.360;2022-11-15T07:01:11;38.67;;;23.20;;
6388;SDS011;3227;42.654;23.360;2022-11-15T07:03:39;41.67;;;23.90;;
6388;SDS011;3227;42.654;23.360;2022-11-15T07:06:09;41.40;;;23.17;;
6388;SDS011;3227;42.654;23.360;2022-11-15T07:08:36;44.03;;;23.77;;
6388;SDS011;3227;42.654;23.360;2022-11-15T07:11:04;45.30;;;23.93;;
6388;SDS011;3227;42.654;23.360;2022-11-15T07:13:33;40.53;;;24.07;;
6388;SDS011;3227;42.654;23.360;2022-11-15T07:16:02;40.40;;;23.93;;
6388;SDS011;3227;42.654;23.360;2022-11-15T07:18:29;40.83;;;23.50;;
6388;SDS011;3227;42.654;23.360;2022-11-15T07:20:59;48.70;;;25.67;;
6388;SDS011;3227;42.654;23.360;2022-11-15T07:23:28;53.83;;;29.17;;
6388;SDS011;3227;42.654;23.360;2022-11-15T07:25:56;49.73;;;28.10;;
6388;SDS011;3227;42.654;23.360;2022-11-15T07:28:23;57.43;;;30.67;;
6388;SDS011;3227;42.654;23.360;2022-11-15T07:30:50;54.87;;;30.83;;
6388;SDS011;3227;42.654;23.360;2022-11-15T07:33:16;58.03;;;30.70;;
6388;SDS011;3227;42.654;23.360;2022-11-15T07:35:43;53.80;;;31.30;;
6388;SDS011;3227;42.654;23.360;2022-11-15T07:38:13;59.60;;;30.83;;
6388;SDS011;3227;42.654;23.360;2022-11-15T07:40:41;61.97;;;32.37;;
6388;SDS011;3227;42.654;23.360;2022-11-15T07:43:08;62.63;;;34.43;;
6388;SDS011;3227;42.654;23.360;2022-11-15T07:45:39;71.17;;;35.47;;
6388;SDS011;3227;42.654;23.360;2022-11-15T07:48:07;63.03;;;33.93;;
6388;SDS011;3227;42.654;23.360;2022-11-15T07:50:34;64.60;;;33.23;;
6388;SDS011;3227;42.654;23.360;2022-11-15T07:53:00;60.47;;;33.97;;
6388;SDS011;3227;42.654;23.360;2022-11-15T07:55:27;57.93;;;32.63;;
6388;SDS011;3227;42.654;23.360;2022-11-15T07:58:01;65.60;;;32.87;;
6388;SDS011;3227;42.654;23.360;2022-11-15T08:00:28;63.63;;;32.53;;
6388;SDS011;3227;42.654;23.360;2022-11-15T08:03:00;58.43;;;33.70;;
6388;SDS011;3227;42.654;23.360;2022-11-15T08:05:29;54.40;;;31.93;;
6388;SDS011;3227;42.654;23.360;2022-11-15T08:07:55;67.57;;;30.67;;
6388;SDS011;3227;42.654;23.360;2022-11-15T08:10:22;57.80;;;32.03;;
6388;SDS011;3227;42.654;23.360;2022-11-15T08:12:56;56.33;;;30.30;;
6388;SDS011;3227;42.654;23.360;2022-11-15T08:15:25;54.67;;;31.73;;
6388;SDS011;3227;42.654;23.360;2022-11-15T08:17:55;51.00;;;29.67;;
6388;SDS011;3227;42.654;23.360;2022-11-15T08:20:23;51.80;;;30.90;;
6388;SDS011;3227;42.654;23.360;2022-11-15T08:22:50;58.70;;;33.60;;
6388;SDS011;3227;42.654;23.360;2022-11-15T08:25:18;58.07;;;32.27;;
6388;SDS011;3227;42.654;23.360;2022-11-15T08:27:44;61.27;;;33.70;;
6388;SDS011;3227;42.654;23.360;2022-11-15T08:30:11;60.23;;;33.40;;
6388;SDS011;3227;42.654;23.360;2022-11-15T08:32:42;68.27;;;34.27;;
6388;SDS011;3227;42.654;23.360;2022-11-15T08:35:09;63.03;;;33.63;;
6388;SDS011;3227;42.654;23.360;2022-11-15T08:37:36;63.03;;;33.17;;
6388;SDS011;3227;42.654;23.360;2022-11-15T08:40:03;68.20;;;36.13;;
6388;SDS011;3227;42.654;23.360;2022-11-15T08:42:30;63.10;;;34.87;;
6388;SDS011;3227;42.654;23.360;2022-11-15T08:44:57;66.07;;;35.83;;
6388;SDS011;3227;42.654;23.360;2022-11-15T08:47:24;75.60;;;36.07;;
6388;SDS011;3227;42.654;23.360;2022-11-15T08:49:52;72.77;;;36.37;;
6388;SDS011;3227;42.654;23.360;2022-11-15T08:52:19;70.10;;;37.43;;
6388;SDS011;3227;42.654;23.360;2022-11-15T08:54:46;69.97;;;36.37;;
6388;SDS011;3227;42.654;23.360;2022-11-15T09:00:11;72.57;;;37.73;;
6388;SDS011;3227;42.654;23.360;2022-11-15T09:02:39;75.07;;;38.23;;
6388;SDS011;3227;42.654;23.360;2022-11-15T09:05:08;72.17;;;37.57;;
6388;SDS011;3227;42.654;23.360;2022-11-15T09:07:35;76.03;;;37.50;;
6388;SDS011;3227;42.654;23.360;2022-11-15T09:10:02;75.83;;;39.07;;
6388;SDS011;3227;42.654;23.360;2022-11-15T09:12:29;86.43;;;43.33;;
6388;SDS011;3227;42.654;23.360;2022-11-15T09:14:56;86.83;;;44.47;;
6388;SDS011;3227;42.654;23.360;2022-11-15T09:17:23;90.40;;;46.80;;
6388;SDS011;3227;42.654;23.360;2022-11-15T09:19:50;78.37;;;42.90;;
6388;SDS011;3227;42.654;23.360;2022-11-15T09:22:18;76.20;;;40.70;;
6388;SDS011;3227;42.654;23.360;2022-11-15T09:24:45;74.73;;;40.47;;
6388;SDS011;3227;42.654;23.360;2022-11-15T09:27:16;72.57;;;38.43;;
6388;SDS011;3227;42.654;23.360;2022-11-15T09:29:43;79.30;;;39.63;;
6388;SDS011;3227;42.654;23.360;2022-11-15T09:32:10;72.97;;;38.80;;
6388;SDS011;3227;42.654;23.360;2022-11-15T09:34:37;72.23;;;38.30;;
6388;SDS011;3227;42.654;23.360;2022-11-15T09:37:03;76.33;;;40.87;;
6388;SDS011;3227;42.654;23.360;2022-11-15T09:39:32;74.53;;;40.00;;
6388;SDS011;3227;42.654;23.360;2022-11-15T09:42:05;77.43;;;38.87;;
6388;SDS011;3227;42.654;23.360;2022-11-15T09:44:56;70.37;;;39.13;;
6388;SDS011;3227;42.654;23.360;2022-11-15T09:47:38;69.23;;;38.07;;
6388;SDS011;3227;42.654;23.360;2022-11-15T09:50:17;70.20;;;38.63;;
6388;SDS011;3227;42.654;23.360;2022-11-15T09:52:57;76.33;;;40.23;;
6388;SDS011;3227;42.654;23.360;2022-11-15T09:55:30;80.13;;;40.40;;
6388;SDS011;3227;42.654;23.360;2022-11-15T09:58:09;82.93;;;39.53;;
6388;SDS011;3227;42.654;23.360;2022-11-15T10:00:46;79.80;;;41.70;;
6388;SDS011;3227;42.654;23.360;2022-11-15T10:03:18;73.87;;;41.03;;
6388;SDS011;3227;42.654;23.360;2022-11-15T10:05:51;83.07;;;42.07;;
6388;SDS011;3227;42.654;23.360;2022-11-15T10:08:25;80.33;;;41.73;;
6388;SDS011;3227;42.654;23.360;2022-11-15T10:11:09;85.83;;;41.63;;
6388;SDS011;3227;42.654;23.360;2022-11-15T10:13:39;87.67;;;42.70;;
6388;SDS011;3227;42.654;23.360;2022-11-15T10:16:19;81.20;;;42.10;;
6388;SDS011;3227;42.654;23.360;2022-11-15T10:19:10;78.23;;;41.63;;
6388;SDS011;3227;42.654;23.360;2022-11-15T10:21:50;76.17;;;41.17;;
6388;SDS011;3227;42.654;23.360;2022-11-15T10:24:27;92.03;;;44.27;;
6388;SDS011;3227;42.654;23.360;2022-11-15T10:26:59;84.83;;;41.37;;
6388;SDS011;3227;42.654;23.360;2022-11-15T10:29:26;78.30;;;41.87;;
6388;SDS011;3227;42.654;23.360;2022-11-15T10:31:53;78.37;;;42.03;;
6388;SDS011;3227;42.654;23.360;2022-11-15T10:34:20;82.60;;;43.67;;
6388;SDS011;3227;42.654;23.360;2022-11-15T10:36:53;78.10;;;43.13;;
6388;SDS011;3227;42.654;23.360;2022-11-15T10:39:21;82.67;;;42.67;;
6388;SDS011;3227;42.654;23.360;2022-11-15T10:41:48;75.03;;;40.70;;
6388;SDS011;3227;42.654;23.360;2022-11-15T10:44:24;76.57;;;41.17;;
6388;SDS011;3227;42.654;23.360;2022-11-15T10:49:59;73.20;;;40.50;;
6388;SDS011;3227;42.654;23.360;2022-11-15T10:52:28;82.20;;;41.43;;
6388;SDS011;3227;42.654;23.360;2022-11-15T10:54:57;79.57;;;43.77;;
6388;SDS011;3227;42.654;23.360;2022-11-15T10:57:29;86.00;;;41.07;;
6388;SDS011;3227;42.654;23.360;2022-11-15T11:00:00;84.53;;;43.03;;
6388;SDS011;3227;42.654;23.360;2022-11-15T11:02:30;80.90;;;42.80;;
6388;SDS011;3227;42.654;23.360;2022-11-15T11:04:59;87.17;;;43.23;;
6388;SDS011;3227;42.654;23.360;2022-11-15T11:07:27;92.20;;;44.60;;
6388;SDS011;3227;42.654;23.360;2022-11-15T11:09:57;96.57;;;44.43;;
6388;SDS011;3227;42.654;23.360;2022-11-15T11:12:29;88.97;;;44.90;;
6388;SDS011;3227;42.654;23.360;2022-11-15T11:14:59;94.30;;;44.63;;
6388;SDS011;3227;42.654;23.360;2022-11-15T11:17:33;88.00;;;44.90;;
6388;SDS011;3227;42.654;23.360;2022-11-15T11:20:11;84.87;;;43.03;;
6388;SDS011;3227;42.654;23.360;2022-11-15T11:22:48;99.57;;;44.07;;
6388;SDS011;3227;42.654;23.360;2022-11-15T11:25:28;83.37;;;40.77;;
6388;SDS011;3227;42.654;23.360;2022-11-15T11:31:20;84.33;;;42.70;;
6388;SDS011;3227;42.654;23.360;2022-11-15T11:34:00;83.73;;;43.53;;
6388;SDS011;3227;42.654;23.360;2022-11-15T11:36:39;86.80;;;42.43;;
6388;SDS011;3227;42.654;23.360;2022-11-15T11:39:19;80.77;;;42.77;;
6388;SDS011;3227;42.654;23.360;2022-11-15T11:42:00;92.13;;;45.87;;
6388;SDS011;3227;42.654;23.360;2022-11-15T11:44:40;96.03;;;47.27;;
6388;SDS011;3227;42.654;23.360;2022-11-15T11:47:18;93.13;;;45.17;;
6388;SDS011;3227;42.654;23.360;2022-11-15T11:49:49;92.37;;;43.97;;
6388;SDS011;3227;42.654;23.360;2022-11-15T11:52:20;81.60;;;43.20;;
6388;SDS011;3227;42.654;23.360;2022-11-15T11:54:58;85.00;;;42.17;;
6388;SDS011;3227;42.654;23.360;2022-11-15T11:57:34;74.93;;;43.27;;
6388;SDS011;3227;42.654;23.360;2022-11-15T12:00:14;84.83;;;42.50;;
6388;SDS011;3227;42.654;23.360;2022-11-15T12:02:50;78.30;;;42.47;;
6388;SDS011;3227;42.654;23.360;2022-11-15T12:05:33;78.80;;;42.03;;
6388;SDS011;3227;42.654;23.360;2022-11-15T12:08:17;80.43;;;41.77;;
6388;SDS011;3227;42.654;23.360;2022-11-15T12:10:51;79.77;;;41.33;;
6388;SDS011;3227;42.654;23.360;2022-11-15T12:13:25;78.07;;;41.40;;
6388;SDS011;3227;42.654;23.360;2022-11-15T12:15:59;83.13;;;42.17;;
6388;SDS011;3227;42.654;23.360;2022-11-15T12:18:33;84.50;;;42.20;;
6388;SDS011;3227;42.654;23.360;2022-11-15T12:21:01;83.97;;;44.30;;
6388;SDS011;3227;42.654;23.360;2022-11-15T12:23:34;74.50;;;41.37;;
6388;SDS011;3227;42.654;23.360;2022-11-15T12:26:06;83.73;;;41.77;;
6388;SDS011;3227;42.654;23.360;2022-11-15T12:28:38;87.57;;;41.97;;
6388;SDS011;3227;42.654;23.360;2022-11-15T12:31:11;77.77;;;41.87;;
6388;SDS011;3227;42.654;23.360;2022-11-15T12:33:44;80.13;;;42.40;;
6388;SDS011;3227;42.654;23.360;2022-11-15T12:36:29;73.80;;;40.40;;
6388;SDS011;3227;42.654;23.360;2022-11-15T12:39:01;77.20;;;40.23;;
6388;SDS011;3227;42.654;23.360;2022-11-15T12:41:29;69.90;;;39.30;;
6388;SDS011;3227;42.654;23.360;2022-11-15T12:43:57;82.77;;;42.07;;
6388;SDS011;3227;42.654;23.360;2022-11-15T12:49:45;76.43;;;39.03;;
6388;SDS011;3227;42.654;23.360;2022-11-15T12:52:12;83.23;;;41.87;;
6388;SDS011;3227;42.654;23.360;2022-11-15T12:54:51;79.60;;;40.17;;
6388;SDS011;3227;42.654;23.360;2022-11-15T12:57:28;74.97;;;39.23;;
6388;SDS011;3227;42.654;23.360;2022-11-15T12:59:57;87.47;;;40.07;;
6388;SDS011;3227;42.654;23.360;2022-11-15T13:02:28;68.63;;;39.23;;
6388;SDS011;3227;42.654;23.360;2022-11-15T13:08:03;69.27;;;38.60;;
6388;SDS011;3227;42.654;23.360;2022-11-15T13:10:30;68.47;;;38.87;;
6388;SDS011;3227;42.654;23.360;2022-11-15T13:12:59;65.67;;;38.93;;
6388;SDS011;3227;42.654;23.360;2022-11-15T13:15:31;71.60;;;41.37;;
6388;SDS011;3227;42.654;23.360;2022-11-15T13:18:32;74.17;;;41.17;;
6388;SDS011;3227;42.654;23.360;2022-11-15T13:21:16;69.93;;;36.80;;
6388;SDS011;3227;42.654;23.360;2022-11-15T13:24:09;71.00;;;39.03;;
6388;SDS011;3227;42.654;23.360;2022-11-15T13:26:38;64.90;;;37.60;;
6388;SDS011;3227;42.654;23.360;2022-11-15T13:29:12;69.20;;;38.97;;
6388;SDS011;3227;42.654;23.360;2022-11-15T13:31:42;66.43;;;38.33;;
6388;SDS011;3227;42.654;23.360;2022-11-15T13:34:15;64.77;;;38.47;;
6388;SDS011;3227;42.654;23.360;2022-11-15T13:36:52;60.73;;;37.50;;
6388;SDS011;3227;42.654;23.360;2022-11-15T13:39:27;69.50;;;38.70;;
6388;SDS011;3227;42.654;23.360;2022-11-15T13:41:55;67.40;;;36.20;;
6388;SDS011;3227;42.654;23.360;2022-11-15T13:44:23;79.20;;;39.43;;
6388;SDS011;3227;42.654;23.360;2022-11-15T13:47:00;65.77;;;37.57;;
6388;SDS011;3227;42.654;23.360;2022-11-15T13:49:29;71.07;;;38.70;;
6388;SDS011;3227;42.654;23.360;2022-11-15T13:51:57;59.50;;;36.47;;
6388;SDS011;3227;42.654;23.360;2022-11-15T13:54:27;61.57;;;36.93;;
6388;SDS011;3227;42.654;23.360;2022-11-15T13:56:57;63.53;;;37.63;;
6388;SDS011;3227;42.654;23.360;2022-11-15T13:59:29;67.47;;;36.50;;
6388;SDS011;3227;42.654;23.360;2022-11-15T14:01:58;71.53;;;38.73;;
6388;SDS011;3227;42.654;23.360;2022-11-15T14:04:29;63.40;;;36.00;;
6388;SDS011;3227;42.654;23.360;2022-11-15T14:06:59;63.07;;;37.37;;
6388;SDS011;3227;42.654;23.360;2022-11-15T14:09:33;62.40;;;38.03;;
6388;SDS011;3227;42.654;23.360;2022-11-15T14:12:02;71.60;;;38.53;;
6388;SDS011;3227;42.654;23.360;2022-11-15T14:14:49;73.15;;;41.75;;
6388;SDS011;3227;42.654;23.360;2022-11-15T14:17:20;74.70;;;44.90;;
6388;SDS011;3227;42.654;23.360;2022-11-15T14:19:59;75.47;;;40.83;;
6388;SDS011;3227;42.654;23.360;2022-11-15T14:22:26;71.63;;;39.60;;
6388;SDS011;3227;42.654;23.360;2022-11-15T14:25:06;74.03;;;39.13;;
6388;SDS011;3227;42.654;23.360;2022-11-15T14:27:41;67.93;;;38.83;;
6388;SDS011;3227;42.654;23.360;2022-11-15T14:30:13;79.97;;;40.23;;
6388;SDS011;3227;42.654;23.360;2022-11-15T14:32:43;74.53;;;41.53;;
6388;SDS011;3227;42.654;23.360;2022-11-15T14:35:12;80.67;;;39.90;;
6388;SDS011;3227;42.654;23.360;2022-11-15T14:37:42;82.83;;;42.47;;
6388;SDS011;3227;42.654;23.360;2022-11-15T14:40:13;88.67;;;43.80;;
6388;SDS011;3227;42.654;23.360;2022-11-15T14:42:42;81.83;;;44.80;;
6388;SDS011;3227;42.654;23.360;2022-11-15T14:45:11;77.73;;;46.47;;
6388;SDS011;3227;42.654;23.360;2022-11-15T14:47:40;97.78;;;56.08;;
6388;SDS011;3227;42.654;23.360;2022-11-15T14:50:10;95.00;;;51.97;;
6388;SDS011;3227;42.654;23.360;2022-11-15T14:52:38;98.20;;;50.77;;
6388;SDS011;3227;42.654;23.360;2022-11-15T14:55:10;100.17;;;51.40;;
6388;SDS011;3227;42.654;23.360;2022-11-15T14:57:42;102.13;;;51.57;;
6388;SDS011;3227;42.654;23.360;2022-11-15T15:00:10;99.07;;;49.07;;
6388;SDS011;3227;42.654;23.360;2022-11-15T15:02:37;100.07;;;50.40;;
6388;SDS011;3227;42.654;23.360;2022-11-15T15:05:11;89.63;;;48.67;;
6388;SDS011;3227;42.654;23.360;2022-11-15T15:07:50;90.43;;;46.60;;
6388;SDS011;3227;42.654;23.360;2022-11-15T15:10:20;92.80;;;46.37;;
6388;SDS011;3227;42.654;23.360;2022-11-15T15:12:48;91.37;;;47.40;;
6388;SDS011;3227;42.654;23.360;2022-11-15T15:15:15;90.87;;;45.83;;
6388;SDS011;3227;42.654;23.360;2022-11-15T15:17:44;83.27;;;45.43;;
6388;SDS011;3227;42.654;23.360;2022-11-15T15:20:11;92.40;;;46.47;;
6388;SDS011;3227;42.654;23.360;2022-11-15T15:22:37;86.97;;;45.03;;
6388;SDS011;3227;42.654;23.360;2022-11-15T15:25:18;89.83;;;47.63;;